Letcher, SD

9:53 AM CDT on August 21, 2019 (GMT -0500)
NE of Letcher | | Change Station
Active Advisory: Flood Warning Active Notice: Public Information Statement

Elev 1302 ft 43.91 °N, 98.11 °W | Updated 8 minutes ago

Scattered Clouds
Scattered Clouds
64.5 °F
Feels Like 64.5 °F
N
6
Wind Variable Wind from East
Gusts 0.0 mph

Today
High -- | Low -- °F
--% Chance of Precip.
Yesterday
High -- | Low -- °F
Precip. -- in
Pressure 30.13 in
Visibility 10.0 miles
Clouds Scattered Clouds 12000 ft
Dew Point 61 °F
Humidity 88%
Rainfall 0.00 in
Snow Depth Not available.
6:43 AM 8:27 PM
Waning Gibbous, 70% visible
METAR KMHE 211353Z AUTO 01005KT 10SM SCT120 18/14 A3014 RMK AO2 RAB1259E31 SLP201 P0000 T01830144
Pressure 30.13 in
Visibility 10.0 miles
Clouds Scattered Clouds 12000 ft
Dew Point 61 °F
Humidity 88%
Rainfall 0.00 in
Snow Depth Not available.
6:43 AM 8:27 PM
Waning Gibbous, 70% visible
METAR KMHE 211353Z AUTO 01005KT 10SM SCT120 18/14 A3014 RMK AO2 RAB1259E31 SLP201 P0000 T01830144

Get Your Daily Forecast Email!

Thanks for signing up!

Be on the lookout for a verification email in your inbox.

You'll start receiving severe weather alerts in your inbox..

×

10-Day Weather Forecast

Almanac

Astronomy

Aug. 21, 2019 Rise Set
Actual Time
Civil Twilight
Nautical Twilight
Astronomical Twilight
Moon
Length of Visible Light
Length of Day
Tomorrow will be .
, % of the Moon is Illuminated

Today's Extremes

State Highs State Lows

Community

WunderPhotos

Category 6

Welcome to Category 6. This is the collective home for Weather Underground's featured writeups by Dr. Jeff Masters (right), Bob Henson (left), Chris Burt, and other regular contributors.

Nearby

Air Quality

  Air Quality AQ Index Pollutant
Not available.

Snow Depth

Station Depth Elevation

Earthquake Activity

City Distance Mag. Time & Date
Minimum magnitude displayed is 2.5.

Coastal Water Temperatures

Place Temperature

Stations

Nearby Weather Stations

Station Location Temp. Windchill Dew Point Humidity Wind Precip. Elev Updated Type
                   

Watches & Warnings

Flood Warning
Issued: 9:01 AM CDT Aug. 21, 2019 – National Weather Service

The Flood Warning continues for
the James River near Forestburg.
* Until further notice.
* At 08am Wednesday the stage was 15.01 feet.
* Moderate flooding is occurring and moderate flooding is forecast.
* Flood stage is 12.00 feet.
* Forecast... the river will continue to fall to a stage of 14.9 feet
by 7 am Thursday.
* At stages near 15.0 feet... many of the County roads in the area are
impassable, and some roads are under water for as much as 1/2 mile.


Lat... Lon 4420 9822 4420 9810 4402 9802 4393 9798
          4393 9812 4409 9816